Anderson Springs, California
Current Conditions -  °F | °C
As of 8:53 AM on Saturday 25 Oct 2014 (Local Time) from KSTS Reporting Station
Overcast Overcast  
Wind Chill: 61°   Ceiling: 1500
Heat Index: 61°   Visibility: 10mi
Dew Point: 59°   Wind: 9mph
Humidity: 93%   Direction: 180°S
Pressure: 29.95"   Gusts: NA
Location:  38.7763°N, 122.598°W
Report Text: KSTS 251553Z 18008KT 10SM BKN015 OVC020 16/15 A2995 RMK AO2 RAB1454E35 SLP136 P0001 T01610150
Loading
Personal Weather Stations






























Interactive Weather Map
Tropical Storm Tracking
New forecast layout! Learn more

10-Day Weather Forecast

Advertisements
Track Severe Weather on mobile